Terminal Aerodrome Forecast
Issued by NWS

Current Version | Previous Version | Text Only | Print | Product List | Glossary On
Versions: 1 2 3 4 5 6 7 8 9 10 11 12 13 14 15 16 17 18 19 20 21 22 23
000 FTUS41 KBOX 172327 TAFHYA TAF KHYA 172327Z 1800/1824 06012KT P6SM SCT250 FM180300 07009KT P6SM OVC100 FM180500 07010KT P6SM -DZ OVC025 FM180900 05006KT P6SM -DZ OVC010 FM181300 06007KT P6SM -DZ OVC015 FM181600 06007KT P6SM OVC020 FM182300 VRB03KT P6SM OVC020=

USA.gov is the U.S. government's official web portal to all federal, state and local government web resources and services.